This is the latest recevied weather packets stored in our database for station/object KN6ZYR. If no packets are shown the sender has not sent any weather packets the latest 10 day(s).
| Time | Temp. | Humidity | Pressure | Rain* | Wind** | Luminosity | Snow |
|---|---|---|---|---|---|---|---|
| 1777472966 | 5.56° C | 74% | 1024.7 hPa | 0 mm | - | 147 W/m² | - |
| 1777472663 | 5° C | 76% | 1024.7 hPa | 0 mm | - | 134 W/m² | - |
| 1777472360 | 3.89° C | 79% | 1024.6 hPa | 0 mm | - | 120 W/m² | - |
| 1777472058 | 3.33° C | 82% | 1024.6 hPa | 0 mm | - | 108 W/m² | - |
| 1777471753 | 2.22° C | 85% | 1024.6 hPa | 0 mm | - | 95 W/m² | - |
| 1777471450 | 2.22° C | 85% | 1024.6 hPa | 0 mm | - | 30 W/m² | - |
| 1777471146 | 2.22° C | 86% | 1024.4 hPa | 0 mm | - | 28 W/m² | - |
| 1777470843 | 2.22° C | 86% | 1024.3 hPa | 0 mm | - | 26 W/m² | - |
| 1777470540 | 2.22° C | 85% | 1024.6 hPa | 0 mm | - | 25 W/m² | - |
| 1777470236 | 2.22° C | 85% | 1024.3 hPa | 0 mm | - | 23 W/m² | - |
| 1777469932 | 2.22° C | 85% | 1024.4 hPa | 0 mm | - | 21 W/m² | - |
| 1777469628 | 2.22° C | 84% | 1024.6 hPa | 0 mm | - | 19 W/m² | - |
| 1777469324 | 2.22° C | 84% | 1024.3 hPa | 0 mm | - | 16 W/m² | - |
| 1777469019 | 2.22° C | 82% | 1024.4 hPa | 0 mm | - | 14 W/m² | - |
| 1777468714 | 2.78° C | 80% | 1024.3 hPa | 0 mm | - | 11 W/m² | - |
| 1777468411 | 2.78° C | 81% | 1024.3 hPa | 0 mm | - | 9 W/m² | - |
| 1777468107 | 2.78° C | 81% | 1024.3 hPa | 0 mm | - | 6 W/m² | - |
| 1777467804 | 2.78° C | 81% | 1024.2 hPa | 0 mm | - | 4 W/m² | - |
| 1777467499 | 2.78° C | 82% | 1024.1 hPa | 0 mm | - | 2 W/m² | - |
| 1777467194 | 2.78° C | 82% | 1024.2 hPa | 0 mm | - | 1 W/m² | - |
| 1777466892 | 2.78° C | 80% | 1024.2 hPa | 0 mm | - | 0 W/m² | - |
| 1777466590 | 3.89° C | 77% | 1024.3 hPa | 0 mm | - | 0 W/m² | - |
| 1777466285 | 3.33° C | 77% | 1024.1 hPa | 0 mm | - | 0 W/m² | - |
| 1777465981 | 3.33° C | 78% | 1024.2 hPa | 0 mm | - | 0 W/m² | - |
| 1777465678 | 3.33° C | 79% | 1024 hPa | 0 mm | - | 0 W/m² | - |
* Rain latest hour (hover to see other rain measurements)
** Current wind speed in m/s (hover to see current wind gust speed)